sensor_id;sensor_type;location;lat;lon;timestamp;P1;durP1;ratioP1;P2;durP2;ratioP2
11267;SDS011;49397;47.474;9.416;2022-10-31T00:01:55;9.33;;;4.87;;
11267;SDS011;49397;47.474;9.416;2022-10-31T00:04:20;14.90;;;4.60;;
11267;SDS011;49397;47.474;9.416;2022-10-31T00:06:46;10.23;;;4.47;;
11267;SDS011;49397;47.474;9.416;2022-10-31T00:09:11;10.63;;;4.47;;
11267;SDS011;49397;47.474;9.416;2022-10-31T00:11:37;14.97;;;4.70;;
11267;SDS011;49397;47.474;9.416;2022-10-31T00:14:03;7.70;;;4.60;;
11267;SDS011;49397;47.474;9.416;2022-10-31T00:16:28;6.63;;;4.43;;
11267;SDS011;49397;47.474;9.416;2022-10-31T00:18:58;14.40;;;5.27;;
11267;SDS011;49397;47.474;9.416;2022-10-31T00:21:26;5.67;;;4.73;;
11267;SDS011;49397;47.474;9.416;2022-10-31T00:23:52;10.80;;;4.90;;
11267;SDS011;49397;47.474;9.416;2022-10-31T00:26:18;8.20;;;4.53;;
11267;SDS011;49397;47.474;9.416;2022-10-31T00:28:44;6.50;;;4.40;;
11267;SDS011;49397;47.474;9.416;2022-10-31T00:31:10;6.17;;;4.57;;
11267;SDS011;49397;47.474;9.416;2022-10-31T00:33:37;8.17;;;4.30;;
11267;SDS011;49397;47.474;9.416;2022-10-31T00:36:04;10.80;;;4.47;;
11267;SDS011;49397;47.474;9.416;2022-10-31T00:38:31;9.17;;;4.97;;
11267;SDS011;49397;47.474;9.416;2022-10-31T00:40:56;7.50;;;4.20;;
11267;SDS011;49397;47.474;9.416;2022-10-31T00:43:22;9.67;;;4.37;;
11267;SDS011;49397;47.474;9.416;2022-10-31T00:45:47;10.77;;;5.20;;
11267;SDS011;49397;47.474;9.416;2022-10-31T00:48:13;15.03;;;5.30;;
11267;SDS011;49397;47.474;9.416;2022-10-31T00:50:39;5.67;;;4.80;;
11267;SDS011;49397;47.474;9.416;2022-10-31T00:53:05;8.27;;;4.80;;
11267;SDS011;49397;47.474;9.416;2022-10-31T00:55:30;6.17;;;4.33;;
11267;SDS011;49397;47.474;9.416;2022-10-31T00:57:56;8.67;;;4.73;;
11267;SDS011;49397;47.474;9.416;2022-10-31T01:00:21;13.80;;;6.53;;
11267;SDS011;49397;47.474;9.416;2022-10-31T01:02:47;7.23;;;4.93;;
11267;SDS011;49397;47.474;9.416;2022-10-31T01:05:12;7.50;;;4.97;;
11267;SDS011;49397;47.474;9.416;2022-10-31T01:07:39;9.57;;;4.47;;
11267;SDS011;49397;47.474;9.416;2022-10-31T01:10:06;10.63;;;4.80;;
11267;SDS011;49397;47.474;9.416;2022-10-31T01:12:39;11.77;;;4.87;;
11267;SDS011;49397;47.474;9.416;2022-10-31T01:15:06;12.57;;;4.53;;
11267;SDS011;49397;47.474;9.416;2022-10-31T01:17:33;8.43;;;4.27;;
11267;SDS011;49397;47.474;9.416;2022-10-31T01:19:59;7.40;;;4.63;;
11267;SDS011;49397;47.474;9.416;2022-10-31T01:22:24;8.37;;;4.47;;
11267;SDS011;49397;47.474;9.416;2022-10-31T01:24:49;11.47;;;4.00;;
11267;SDS011;49397;47.474;9.416;2022-10-31T01:27:15;9.43;;;4.97;;
11267;SDS011;49397;47.474;9.416;2022-10-31T01:29:40;10.43;;;4.17;;
11267;SDS011;49397;47.474;9.416;2022-10-31T01:32:06;10.80;;;4.90;;
11267;SDS011;49397;47.474;9.416;2022-10-31T01:34:31;10.20;;;5.03;;
11267;SDS011;49397;47.474;9.416;2022-10-31T01:36:57;6.90;;;4.03;;
11267;SDS011;49397;47.474;9.416;2022-10-31T01:39:22;10.10;;;4.63;;
11267;SDS011;49397;47.474;9.416;2022-10-31T01:41:49;7.83;;;4.00;;
11267;SDS011;49397;47.474;9.416;2022-10-31T01:46:43;10.40;;;4.77;;
11267;SDS011;49397;47.474;9.416;2022-10-31T01:51:55;8.17;;;5.33;;
11267;SDS011;49397;47.474;9.416;2022-10-31T01:54:26;8.87;;;4.43;;
11267;SDS011;49397;47.474;9.416;2022-10-31T01:57:00;8.63;;;4.23;;
11267;SDS011;49397;47.474;9.416;2022-10-31T01:59:30;6.60;;;4.20;;
11267;SDS011;49397;47.474;9.416;2022-10-31T02:01:59;10.90;;;4.77;;
11267;SDS011;49397;47.474;9.416;2022-10-31T02:04:24;11.07;;;4.47;;
11267;SDS011;49397;47.474;9.416;2022-10-31T02:06:53;12.70;;;4.17;;
11267;SDS011;49397;47.474;9.416;2022-10-31T02:09:23;7.10;;;4.37;;
11267;SDS011;49397;47.474;9.416;2022-10-31T02:11:54;8.57;;;4.80;;
11267;SDS011;49397;47.474;9.416;2022-10-31T02:14:23;15.87;;;4.90;;
11267;SDS011;49397;47.474;9.416;2022-10-31T02:16:51;7.13;;;4.50;;
11267;SDS011;49397;47.474;9.416;2022-10-31T02:19:18;11.47;;;4.33;;
11267;SDS011;49397;47.474;9.416;2022-10-31T02:22:26;10.87;;;4.53;;
11267;SDS011;49397;47.474;9.416;2022-10-31T02:27:41;9.73;;;4.00;;
11267;SDS011;49397;47.474;9.416;2022-10-31T02:30:24;7.60;;;4.20;;
11267;SDS011;49397;47.474;9.416;2022-10-31T02:36:01;7.77;;;4.43;;
11267;SDS011;49397;47.474;9.416;2022-10-31T02:38:45;6.93;;;4.40;;
11267;SDS011;49397;47.474;9.416;2022-10-31T02:42:07;8.03;;;4.60;;
11267;SDS011;49397;47.474;9.416;2022-10-31T02:47:28;6.17;;;3.70;;
11267;SDS011;49397;47.474;9.416;2022-10-31T02:50:02;5.93;;;4.10;;
11267;SDS011;49397;47.474;9.416;2022-10-31T02:52:55;6.60;;;5.07;;
11267;SDS011;49397;47.474;9.416;2022-10-31T02:57:49;7.03;;;5.13;;
11267;SDS011;49397;47.474;9.416;2022-10-31T03:00:18;6.17;;;3.97;;
11267;SDS011;49397;47.474;9.416;2022-10-31T03:11:05;11.10;;;4.67;;
11267;SDS011;49397;47.474;9.416;2022-10-31T03:16:17;10.17;;;3.97;;
11267;SDS011;49397;47.474;9.416;2022-10-31T03:19:10;7.33;;;4.23;;
11267;SDS011;49397;47.474;9.416;2022-10-31T03:21:43;7.07;;;4.20;;
11267;SDS011;49397;47.474;9.416;2022-10-31T03:24:12;6.90;;;4.20;;
11267;SDS011;49397;47.474;9.416;2022-10-31T03:26:53;6.77;;;3.83;;
11267;SDS011;49397;47.474;9.416;2022-10-31T03:29:24;7.83;;;4.40;;
11267;SDS011;49397;47.474;9.416;2022-10-31T03:32:27;9.47;;;5.20;;
11267;SDS011;49397;47.474;9.416;2022-10-31T03:34:49;13.17;;;4.40;;
11267;SDS011;49397;47.474;9.416;2022-10-31T03:37:19;10.60;;;4.27;;
11267;SDS011;49397;47.474;9.416;2022-10-31T03:39:47;9.37;;;3.60;;
11267;SDS011;49397;47.474;9.416;2022-10-31T03:44:53;7.60;;;4.00;;
11267;SDS011;49397;47.474;9.416;2022-10-31T03:47:29;5.60;;;4.07;;
11267;SDS011;49397;47.474;9.416;2022-10-31T03:49:56;5.43;;;4.00;;
11267;SDS011;49397;47.474;9.416;2022-10-31T03:55:10;10.10;;;3.80;;
11267;SDS011;49397;47.474;9.416;2022-10-31T03:57:51;12.27;;;4.07;;
11267;SDS011;49397;47.474;9.416;2022-10-31T04:00:22;9.33;;;4.20;;
11267;SDS011;49397;47.474;9.416;2022-10-31T04:02:55;7.17;;;3.90;;
11267;SDS011;49397;47.474;9.416;2022-10-31T04:05:26;8.23;;;5.13;;
11267;SDS011;49397;47.474;9.416;2022-10-31T04:07:53;11.10;;;5.10;;
11267;SDS011;49397;47.474;9.416;2022-10-31T04:10:22;8.33;;;4.77;;
11267;SDS011;49397;47.474;9.416;2022-10-31T04:12:54;6.97;;;4.03;;
11267;SDS011;49397;47.474;9.416;2022-10-31T04:15:31;9.47;;;4.33;;
11267;SDS011;49397;47.474;9.416;2022-10-31T04:17:58;5.47;;;3.90;;
11267;SDS011;49397;47.474;9.416;2022-10-31T04:20:30;7.17;;;4.03;;
11267;SDS011;49397;47.474;9.416;2022-10-31T04:22:57;7.73;;;4.03;;
11267;SDS011;49397;47.474;9.416;2022-10-31T04:25:23;7.37;;;3.80;;
11267;SDS011;49397;47.474;9.416;2022-10-31T04:27:48;12.70;;;4.53;;
11267;SDS011;49397;47.474;9.416;2022-10-31T04:30:13;13.13;;;4.30;;
11267;SDS011;49397;47.474;9.416;2022-10-31T04:32:39;5.43;;;3.37;;
11267;SDS011;49397;47.474;9.416;2022-10-31T04:35:05;10.97;;;3.90;;
11267;SDS011;49397;47.474;9.416;2022-10-31T04:37:30;8.37;;;4.10;;
11267;SDS011;49397;47.474;9.416;2022-10-31T04:39:56;8.03;;;4.80;;
11267;SDS011;49397;47.474;9.416;2022-10-31T04:42:21;9.23;;;4.20;;
11267;SDS011;49397;47.474;9.416;2022-10-31T04:44:47;8.17;;;3.63;;
11267;SDS011;49397;47.474;9.416;2022-10-31T04:47:12;13.03;;;4.47;;
11267;SDS011;49397;47.474;9.416;2022-10-31T04:49:38;8.63;;;4.63;;
11267;SDS011;49397;47.474;9.416;2022-10-31T04:52:03;8.43;;;4.07;;
11267;SDS011;49397;47.474;9.416;2022-10-31T04:54:29;12.13;;;3.80;;
11267;SDS011;49397;47.474;9.416;2022-10-31T04:56:54;8.53;;;3.80;;
11267;SDS011;49397;47.474;9.416;2022-10-31T04:59:21;7.70;;;4.80;;
11267;SDS011;49397;47.474;9.416;2022-10-31T05:01:47;6.17;;;3.50;;
11267;SDS011;49397;47.474;9.416;2022-10-31T05:04:12;7.90;;;4.00;;
11267;SDS011;49397;47.474;9.416;2022-10-31T05:06:37;6.77;;;4.07;;
11267;SDS011;49397;47.474;9.416;2022-10-31T05:09:03;10.17;;;4.80;;
11267;SDS011;49397;47.474;9.416;2022-10-31T05:11:28;6.90;;;4.33;;
11267;SDS011;49397;47.474;9.416;2022-10-31T05:13:54;8.07;;;4.00;;
11267;SDS011;49397;47.474;9.416;2022-10-31T05:16:19;15.47;;;3.80;;
11267;SDS011;49397;47.474;9.416;2022-10-31T05:18:45;10.03;;;4.67;;
11267;SDS011;49397;47.474;9.416;2022-10-31T05:21:10;9.07;;;4.90;;
11267;SDS011;49397;47.474;9.416;2022-10-31T05:23:36;5.23;;;3.90;;
11267;SDS011;49397;47.474;9.416;2022-10-31T05:26:01;6.80;;;4.97;;
11267;SDS011;49397;47.474;9.416;2022-10-31T05:28:27;5.67;;;3.37;;
11267;SDS011;49397;47.474;9.416;2022-10-31T05:30:52;8.40;;;4.10;;
11267;SDS011;49397;47.474;9.416;2022-10-31T05:33:18;4.73;;;3.30;;
11267;SDS011;49397;47.474;9.416;2022-10-31T05:35:43;8.50;;;4.17;;
11267;SDS011;49397;47.474;9.416;2022-10-31T05:38:08;10.07;;;4.07;;
11267;SDS011;49397;47.474;9.416;2022-10-31T05:40:34;7.87;;;3.70;;
11267;SDS011;49397;47.474;9.416;2022-10-31T05:42:59;6.93;;;4.53;;
11267;SDS011;49397;47.474;9.416;2022-10-31T05:45:25;13.57;;;5.07;;
11267;SDS011;49397;47.474;9.416;2022-10-31T05:47:54;8.10;;;4.13;;
11267;SDS011;49397;47.474;9.416;2022-10-31T05:50:23;10.13;;;5.27;;
11267;SDS011;49397;47.474;9.416;2022-10-31T05:53:03;12.57;;;5.30;;
11267;SDS011;49397;47.474;9.416;2022-10-31T05:55:29;8.00;;;5.47;;
11267;SDS011;49397;47.474;9.416;2022-10-31T05:57:56;5.80;;;3.47;;
11267;SDS011;49397;47.474;9.416;2022-10-31T06:00:22;6.07;;;3.60;;
11267;SDS011;49397;47.474;9.416;2022-10-31T06:02:48;6.90;;;3.67;;
11267;SDS011;49397;47.474;9.416;2022-10-31T06:05:14;6.30;;;3.87;;
11267;SDS011;49397;47.474;9.416;2022-10-31T06:07:41;9.97;;;4.90;;
11267;SDS011;49397;47.474;9.416;2022-10-31T06:10:07;12.93;;;4.73;;
11267;SDS011;49397;47.474;9.416;2022-10-31T06:12:33;7.37;;;4.07;;
11267;SDS011;49397;47.474;9.416;2022-10-31T06:15:05;4.30;;;3.80;;
11267;SDS011;49397;47.474;9.416;2022-10-31T06:17:31;6.03;;;3.70;;
11267;SDS011;49397;47.474;9.416;2022-10-31T06:19:57;10.43;;;3.60;;
11267;SDS011;49397;47.474;9.416;2022-10-31T06:22:22;6.87;;;3.77;;
11267;SDS011;49397;47.474;9.416;2022-10-31T06:24:48;13.50;;;7.43;;
11267;SDS011;49397;47.474;9.416;2022-10-31T06:27:13;7.43;;;3.70;;
11267;SDS011;49397;47.474;9.416;2022-10-31T06:29:38;3.73;;;3.13;;
11267;SDS011;49397;47.474;9.416;2022-10-31T06:32:04;10.63;;;3.47;;
11267;SDS011;49397;47.474;9.416;2022-10-31T06:34:30;7.20;;;3.53;;
11267;SDS011;49397;47.474;9.416;2022-10-31T06:36:55;8.43;;;4.17;;
11267;SDS011;49397;47.474;9.416;2022-10-31T06:39:21;6.53;;;3.93;;
11267;SDS011;49397;47.474;9.416;2022-10-31T06:41:47;9.10;;;4.93;;
11267;SDS011;49397;47.474;9.416;2022-10-31T06:44:13;11.73;;;4.80;;
11267;SDS011;49397;47.474;9.416;2022-10-31T06:46:39;7.40;;;5.10;;
11267;SDS011;49397;47.474;9.416;2022-10-31T06:49:04;7.17;;;5.80;;
11267;SDS011;49397;47.474;9.416;2022-10-31T06:51:30;12.93;;;6.97;;
11267;SDS011;49397;47.474;9.416;2022-10-31T06:53:55;6.83;;;5.33;;
11267;SDS011;49397;47.474;9.416;2022-10-31T06:56:21;9.27;;;5.23;;
11267;SDS011;49397;47.474;9.416;2022-10-31T06:58:46;12.20;;;6.10;;
11267;SDS011;49397;47.474;9.416;2022-10-31T07:01:11;9.83;;;5.00;;
11267;SDS011;49397;47.474;9.416;2022-10-31T07:03:37;8.40;;;4.20;;
11267;SDS011;49397;47.474;9.416;2022-10-31T07:06:02;5.80;;;4.60;;
11267;SDS011;49397;47.474;9.416;2022-10-31T07:08:28;9.63;;;4.83;;
11267;SDS011;49397;47.474;9.416;2022-10-31T07:10:54;10.57;;;5.20;;
11267;SDS011;49397;47.474;9.416;2022-10-31T07:13:21;8.10;;;5.53;;
11267;SDS011;49397;47.474;9.416;2022-10-31T07:15:51;9.43;;;5.77;;
11267;SDS011;49397;47.474;9.416;2022-10-31T07:18:18;8.83;;;5.87;;
11267;SDS011;49397;47.474;9.416;2022-10-31T07:20:44;8.60;;;7.23;;
11267;SDS011;49397;47.474;9.416;2022-10-31T07:23:10;10.47;;;7.50;;
11267;SDS011;49397;47.474;9.416;2022-10-31T07:25:37;10.10;;;7.60;;
11267;SDS011;49397;47.474;9.416;2022-10-31T07:28:03;11.57;;;6.83;;
11267;SDS011;49397;47.474;9.416;2022-10-31T07:30:29;10.70;;;7.63;;
11267;SDS011;49397;47.474;9.416;2022-10-31T07:32:54;11.63;;;7.90;;
11267;SDS011;49397;47.474;9.416;2022-10-31T07:35:21;13.10;;;9.37;;
11267;SDS011;49397;47.474;9.416;2022-10-31T07:37:48;17.37;;;9.77;;
11267;SDS011;49397;47.474;9.416;2022-10-31T07:40:14;12.50;;;8.80;;
11267;SDS011;49397;47.474;9.416;2022-10-31T07:42:42;11.63;;;8.23;;
11267;SDS011;49397;47.474;9.416;2022-10-31T07:45:10;14.43;;;8.20;;
11267;SDS011;49397;47.474;9.416;2022-10-31T07:47:45;15.13;;;8.30;;
11267;SDS011;49397;47.474;9.416;2022-10-31T07:50:12;16.37;;;9.77;;
11267;SDS011;49397;47.474;9.416;2022-10-31T07:52:40;14.80;;;10.13;;
11267;SDS011;49397;47.474;9.416;2022-10-31T07:55:06;17.50;;;10.37;;
11267;SDS011;49397;47.474;9.416;2022-10-31T07:57:32;16.07;;;11.17;;
11267;SDS011;49397;47.474;9.416;2022-10-31T07:59:57;21.27;;;10.43;;
11267;SDS011;49397;47.474;9.416;2022-10-31T08:02:23;13.50;;;10.23;;
11267;SDS011;49397;47.474;9.416;2022-10-31T08:04:50;14.57;;;9.37;;
11267;SDS011;49397;47.474;9.416;2022-10-31T08:07:15;14.43;;;10.60;;
11267;SDS011;49397;47.474;9.416;2022-10-31T08:09:41;17.27;;;9.90;;
11267;SDS011;49397;47.474;9.416;2022-10-31T08:12:07;17.07;;;10.13;;
11267;SDS011;49397;47.474;9.416;2022-10-31T08:14:32;17.93;;;10.33;;
11267;SDS011;49397;47.474;9.416;2022-10-31T08:16:58;19.47;;;10.50;;
11267;SDS011;49397;47.474;9.416;2022-10-31T08:19:23;16.43;;;9.87;;
11267;SDS011;49397;47.474;9.416;2022-10-31T08:21:52;13.23;;;9.73;;
11267;SDS011;49397;47.474;9.416;2022-10-31T08:24:20;14.37;;;10.60;;
11267;SDS011;49397;47.474;9.416;2022-10-31T08:26:46;15.50;;;11.17;;
11267;SDS011;49397;47.474;9.416;2022-10-31T08:29:12;13.53;;;10.90;;
11267;SDS011;49397;47.474;9.416;2022-10-31T08:31:38;12.30;;;10.40;;
11267;SDS011;49397;47.474;9.416;2022-10-31T08:34:03;11.53;;;10.20;;
11267;SDS011;49397;47.474;9.416;2022-10-31T08:36:29;14.20;;;10.27;;
11267;SDS011;49397;47.474;9.416;2022-10-31T08:38:55;14.17;;;10.10;;
11267;SDS011;49397;47.474;9.416;2022-10-31T08:41:20;12.73;;;9.77;;
11267;SDS011;49397;47.474;9.416;2022-10-31T08:43:46;13.57;;;9.77;;
11267;SDS011;49397;47.474;9.416;2022-10-31T08:46:12;19.67;;;10.87;;
11267;SDS011;49397;47.474;9.416;2022-10-31T08:48:38;17.83;;;11.73;;
11267;SDS011;49397;47.474;9.416;2022-10-31T08:51:03;15.63;;;10.83;;
11267;SDS011;49397;47.474;9.416;2022-10-31T08:53:29;11.90;;;10.13;;
11267;SDS011;49397;47.474;9.416;2022-10-31T08:55:55;12.87;;;10.47;;
11267;SDS011;49397;47.474;9.416;2022-10-31T08:58:21;13.27;;;10.13;;
11267;SDS011;49397;47.474;9.416;2022-10-31T09:00:50;12.43;;;10.07;;
11267;SDS011;49397;47.474;9.416;2022-10-31T09:03:18;18.70;;;11.13;;
11267;SDS011;49397;47.474;9.416;2022-10-31T09:05:48;16.67;;;10.30;;
11267;SDS011;49397;47.474;9.416;2022-10-31T09:08:14;13.13;;;10.17;;
11267;SDS011;49397;47.474;9.416;2022-10-31T09:10:40;14.47;;;11.03;;
11267;SDS011;49397;47.474;9.416;2022-10-31T09:13:11;14.83;;;10.93;;
11267;SDS011;49397;47.474;9.416;2022-10-31T09:15:42;14.10;;;10.13;;
11267;SDS011;49397;47.474;9.416;2022-10-31T09:18:10;16.23;;;10.20;;
11267;SDS011;49397;47.474;9.416;2022-10-31T09:20:37;13.63;;;9.37;;
11267;SDS011;49397;47.474;9.416;2022-10-31T09:23:05;15.37;;;10.33;;
11267;SDS011;49397;47.474;9.416;2022-10-31T09:25:32;11.67;;;9.73;;
11267;SDS011;49397;47.474;9.416;2022-10-31T09:28:00;10.73;;;8.17;;
11267;SDS011;49397;47.474;9.416;2022-10-31T09:30:27;12.00;;;8.63;;
11267;SDS011;49397;47.474;9.416;2022-10-31T09:32:57;15.87;;;10.63;;
11267;SDS011;49397;47.474;9.416;2022-10-31T09:35:27;12.43;;;10.00;;
11267;SDS011;49397;47.474;9.416;2022-10-31T09:37:56;15.43;;;11.20;;
11267;SDS011;49397;47.474;9.416;2022-10-31T09:40:24;17.50;;;11.43;;
11267;SDS011;49397;47.474;9.416;2022-10-31T09:45:37;13.73;;;10.07;;
11267;SDS011;49397;47.474;9.416;2022-10-31T09:51:03;14.87;;;9.87;;
11267;SDS011;49397;47.474;9.416;2022-10-31T09:56:10;15.47;;;10.60;;
11267;SDS011;49397;47.474;9.416;2022-10-31T09:58:46;13.07;;;9.50;;
11267;SDS011;49397;47.474;9.416;2022-10-31T10:09:44;13.70;;;9.33;;
11267;SDS011;49397;47.474;9.416;2022-10-31T10:12:19;18.73;;;11.73;;
11267;SDS011;49397;47.474;9.416;2022-10-31T10:20:41;11.67;;;9.23;;
11267;SDS011;49397;47.474;9.416;2022-10-31T10:26:18;12.07;;;9.33;;
11267;SDS011;49397;47.474;9.416;2022-10-31T10:29:31;12.33;;;9.47;;
11267;SDS011;49397;47.474;9.416;2022-10-31T10:31:37;11.60;;;9.27;;
11267;SDS011;49397;47.474;9.416;2022-10-31T10:34:12;14.20;;;8.70;;
11267;SDS011;49397;47.474;9.416;2022-10-31T10:39:40;12.47;;;9.23;;
11267;SDS011;49397;47.474;9.416;2022-10-31T10:42:10;11.93;;;9.13;;
11267;SDS011;49397;47.474;9.416;2022-10-31T10:44:56;14.33;;;9.97;;
11267;SDS011;49397;47.474;9.416;2022-10-31T10:47:42;12.77;;;8.77;;
11267;SDS011;49397;47.474;9.416;2022-10-31T10:50:14;10.50;;;9.00;;
11267;SDS011;49397;47.474;9.416;2022-10-31T10:52:57;9.57;;;8.13;;
11267;SDS011;49397;47.474;9.416;2022-10-31T10:55:32;9.67;;;8.67;;
11267;SDS011;49397;47.474;9.416;2022-10-31T10:58:10;11.03;;;8.50;;
11267;SDS011;49397;47.474;9.416;2022-10-31T11:00:38;9.73;;;8.67;;
11267;SDS011;49397;47.474;9.416;2022-10-31T11:03:05;9.67;;;8.50;;
11267;SDS011;49397;47.474;9.416;2022-10-31T11:06:15;9.33;;;8.10;;
11267;SDS011;49397;47.474;9.416;2022-10-31T11:13:55;12.30;;;8.43;;
11267;SDS011;49397;47.474;9.416;2022-10-31T11:16:38;9.03;;;8.10;;
11267;SDS011;49397;47.474;9.416;2022-10-31T11:21:32;11.00;;;9.17;;
11267;SDS011;49397;47.474;9.416;2022-10-31T11:26:34;9.37;;;8.20;;
11267;SDS011;49397;47.474;9.416;2022-10-31T11:29:00;11.80;;;9.43;;
11267;SDS011;49397;47.474;9.416;2022-10-31T11:31:30;9.90;;;8.37;;
11267;SDS011;49397;47.474;9.416;2022-10-31T11:36:31;12.77;;;11.03;;
11267;SDS011;49397;47.474;9.416;2022-10-31T11:39:01;10.80;;;9.37;;
11267;SDS011;49397;47.474;9.416;2022-10-31T11:41:29;10.67;;;9.57;;
11267;SDS011;49397;47.474;9.416;2022-10-31T11:46:53;10.63;;;9.53;;
11267;SDS011;49397;47.474;9.416;2022-10-31T11:52:08;11.93;;;10.50;;
11267;SDS011;49397;47.474;9.416;2022-10-31T11:55:14;12.53;;;9.27;;
11267;SDS011;49397;47.474;9.416;2022-10-31T12:00:22;13.07;;;10.00;;
11267;SDS011;49397;47.474;9.416;2022-10-31T12:05:39;12.87;;;9.77;;
11267;SDS011;49397;47.474;9.416;2022-10-31T12:08:09;14.03;;;10.80;;
11267;SDS011;49397;47.474;9.416;2022-10-31T12:10:44;14.23;;;10.73;;
11267;SDS011;49397;47.474;9.416;2022-10-31T12:16:28;18.03;;;10.63;;
11267;SDS011;49397;47.474;9.416;2022-10-31T12:27:13;15.13;;;11.63;;
11267;SDS011;49397;47.474;9.416;2022-10-31T12:30:07;13.87;;;10.40;;
11267;SDS011;49397;47.474;9.416;2022-10-31T12:32:40;12.97;;;11.33;;
11267;SDS011;49397;47.474;9.416;2022-10-31T12:43:45;15.93;;;10.60;;
11267;SDS011;49397;47.474;9.416;2022-10-31T12:46:17;14.73;;;12.10;;
11267;SDS011;49397;47.474;9.416;2022-10-31T12:51:40;15.97;;;11.90;;
11267;SDS011;49397;47.474;9.416;2022-10-31T12:57:36;13.57;;;11.53;;
11267;SDS011;49397;47.474;9.416;2022-10-31T13:00:15;15.37;;;12.00;;
11267;SDS011;49397;47.474;9.416;2022-10-31T13:05:31;17.50;;;11.90;;
11267;SDS011;49397;47.474;9.416;2022-10-31T13:08:05;15.33;;;11.63;;
11267;SDS011;49397;47.474;9.416;2022-10-31T13:10:41;16.13;;;12.20;;
11267;SDS011;49397;47.474;9.416;2022-10-31T13:13:20;14.83;;;11.13;;
11267;SDS011;49397;47.474;9.416;2022-10-31T13:16:03;15.37;;;11.77;;
11267;SDS011;49397;47.474;9.416;2022-10-31T13:18:35;18.67;;;13.17;;
11267;SDS011;49397;47.474;9.416;2022-10-31T13:21:27;14.93;;;12.40;;
11267;SDS011;49397;47.474;9.416;2022-10-31T13:24:00;16.43;;;12.67;;
11267;SDS011;49397;47.474;9.416;2022-10-31T13:26:37;18.07;;;12.73;;
11267;SDS011;49397;47.474;9.416;2022-10-31T13:29:11;17.23;;;13.03;;
11267;SDS011;49397;47.474;9.416;2022-10-31T13:31:41;20.73;;;13.87;;
11267;SDS011;49397;47.474;9.416;2022-10-31T13:34:27;16.50;;;12.13;;
11267;SDS011;49397;47.474;9.416;2022-10-31T13:36:58;17.60;;;13.43;;
11267;SDS011;49397;47.474;9.416;2022-10-31T13:45:29;15.50;;;13.53;;
11267;SDS011;49397;47.474;9.416;2022-10-31T13:47:55;21.87;;;13.70;;
11267;SDS011;49397;47.474;9.416;2022-10-31T13:50:22;22.03;;;13.40;;
11267;SDS011;49397;47.474;9.416;2022-10-31T13:52:50;23.43;;;14.07;;
11267;SDS011;49397;47.474;9.416;2022-10-31T13:55:35;18.80;;;14.07;;
11267;SDS011;49397;47.474;9.416;2022-10-31T13:58:03;18.87;;;13.37;;
11267;SDS011;49397;47.474;9.416;2022-10-31T14:00:30;19.17;;;14.27;;
11267;SDS011;49397;47.474;9.416;2022-10-31T14:03:00;20.53;;;14.43;;
11267;SDS011;49397;47.474;9.416;2022-10-31T14:05:33;17.03;;;13.93;;
11267;SDS011;49397;47.474;9.416;2022-10-31T14:08:03;16.23;;;13.27;;
11267;SDS011;49397;47.474;9.416;2022-10-31T14:10:46;19.57;;;14.33;;
11267;SDS011;49397;47.474;9.416;2022-10-31T14:13:36;18.37;;;14.33;;
11267;SDS011;49397;47.474;9.416;2022-10-31T14:16:06;18.90;;;14.93;;
11267;SDS011;49397;47.474;9.416;2022-10-31T14:18:45;19.87;;;14.53;;
11267;SDS011;49397;47.474;9.416;2022-10-31T14:23:51;23.53;;;14.80;;
11267;SDS011;49397;47.474;9.416;2022-10-31T14:28:57;18.00;;;13.13;;
11267;SDS011;49397;47.474;9.416;2022-10-31T14:31:51;19.90;;;14.20;;
11267;SDS011;49397;47.474;9.416;2022-10-31T14:35:12;17.30;;;14.53;;
11267;SDS011;49397;47.474;9.416;2022-10-31T14:51:07;18.57;;;14.73;;
11267;SDS011;49397;47.474;9.416;2022-10-31T14:53:51;20.80;;;14.13;;
11267;SDS011;49397;47.474;9.416;2022-10-31T14:56:34;18.77;;;14.90;;
11267;SDS011;49397;47.474;9.416;2022-10-31T14:59:14;20.20;;;15.33;;
11267;SDS011;49397;47.474;9.416;2022-10-31T15:01:50;23.57;;;16.27;;
11267;SDS011;49397;47.474;9.416;2022-10-31T15:04:30;22.47;;;14.50;;
11267;SDS011;49397;47.474;9.416;2022-10-31T15:07:02;19.20;;;13.93;;
11267;SDS011;49397;47.474;9.416;2022-10-31T15:09:59;16.20;;;13.77;;
11267;SDS011;49397;47.474;9.416;2022-10-31T15:12:28;21.63;;;15.70;;
11267;SDS011;49397;47.474;9.416;2022-10-31T15:14:55;23.63;;;15.63;;
11267;SDS011;49397;47.474;9.416;2022-10-31T15:17:22;17.87;;;14.03;;
11267;SDS011;49397;47.474;9.416;2022-10-31T15:19:49;21.57;;;14.97;;
11267;SDS011;49397;47.474;9.416;2022-10-31T15:22:19;22.03;;;15.00;;
11267;SDS011;49397;47.474;9.416;2022-10-31T15:24:48;16.07;;;13.67;;
11267;SDS011;49397;47.474;9.416;2022-10-31T15:27:21;21.63;;;15.50;;
11267;SDS011;49397;47.474;9.416;2022-10-31T15:29:49;20.43;;;13.80;;
11267;SDS011;49397;47.474;9.416;2022-10-31T15:32:22;21.67;;;16.03;;
11267;SDS011;49397;47.474;9.416;2022-10-31T15:34:48;26.47;;;16.20;;
11267;SDS011;49397;47.474;9.416;2022-10-31T15:37:16;20.27;;;14.93;;
11267;SDS011;49397;47.474;9.416;2022-10-31T15:39:46;17.90;;;13.13;;
11267;SDS011;49397;47.474;9.416;2022-10-31T15:44:56;20.80;;;15.23;;
11267;SDS011;49397;47.474;9.416;2022-10-31T15:47:25;23.40;;;15.83;;
11267;SDS011;49397;47.474;9.416;2022-10-31T15:49:55;28.10;;;15.63;;
11267;SDS011;49397;47.474;9.416;2022-10-31T15:54:55;20.17;;;14.30;;
11267;SDS011;49397;47.474;9.416;2022-10-31T15:57:24;17.00;;;14.00;;
11267;SDS011;49397;47.474;9.416;2022-10-31T15:59:52;19.97;;;15.27;;
11267;SDS011;49397;47.474;9.416;2022-10-31T16:02:20;43.87;;;17.10;;
11267;SDS011;49397;47.474;9.416;2022-10-31T16:04:52;23.90;;;16.87;;
11267;SDS011;49397;47.474;9.416;2022-10-31T16:07:19;29.40;;;16.33;;
11267;SDS011;49397;47.474;9.416;2022-10-31T16:09:58;23.73;;;16.80;;
11267;SDS011;49397;47.474;9.416;2022-10-31T16:12:29;28.77;;;18.67;;
11267;SDS011;49397;47.474;9.416;2022-10-31T16:14:59;31.93;;;19.53;;
11267;SDS011;49397;47.474;9.416;2022-10-31T16:17:26;29.13;;;18.17;;
11267;SDS011;49397;47.474;9.416;2022-10-31T16:19:56;27.83;;;16.50;;
11267;SDS011;49397;47.474;9.416;2022-10-31T16:22:34;26.93;;;16.63;;
11267;SDS011;49397;47.474;9.416;2022-10-31T16:27:46;27.07;;;17.17;;
11267;SDS011;49397;47.474;9.416;2022-10-31T16:33:03;22.43;;;15.50;;
11267;SDS011;49397;47.474;9.416;2022-10-31T16:35:34;26.13;;;16.43;;
11267;SDS011;49397;47.474;9.416;2022-10-31T16:38:01;24.23;;;16.67;;
11267;SDS011;49397;47.474;9.416;2022-10-31T16:40:27;31.90;;;16.67;;
11267;SDS011;49397;47.474;9.416;2022-10-31T16:42:53;31.73;;;16.83;;
11267;SDS011;49397;47.474;9.416;2022-10-31T16:45:19;27.47;;;16.50;;
11267;SDS011;49397;47.474;9.416;2022-10-31T16:47:46;28.63;;;18.07;;
11267;SDS011;49397;47.474;9.416;2022-10-31T16:50:18;27.87;;;17.57;;
11267;SDS011;49397;47.474;9.416;2022-10-31T16:52:46;28.50;;;16.60;;
11267;SDS011;49397;47.474;9.416;2022-10-31T16:55:13;27.97;;;16.27;;
11267;SDS011;49397;47.474;9.416;2022-10-31T16:57:40;23.77;;;15.90;;
11267;SDS011;49397;47.474;9.416;2022-10-31T17:00:12;19.87;;;15.87;;
11267;SDS011;49397;47.474;9.416;2022-10-31T17:02:43;32.50;;;18.30;;
11267;SDS011;49397;47.474;9.416;2022-10-31T17:05:11;31.90;;;18.23;;
11267;SDS011;49397;47.474;9.416;2022-10-31T17:07:38;27.13;;;16.60;;
11267;SDS011;49397;47.474;9.416;2022-10-31T17:10:04;23.73;;;15.03;;
11267;SDS011;49397;47.474;9.416;2022-10-31T17:12:30;22.30;;;15.60;;
11267;SDS011;49397;47.474;9.416;2022-10-31T17:14:56;28.13;;;17.27;;
11267;SDS011;49397;47.474;9.416;2022-10-31T17:17:22;30.97;;;17.00;;
11267;SDS011;49397;47.474;9.416;2022-10-31T17:19:47;29.23;;;16.33;;